sensor_id;sensor_type;location;lat;lon;timestamp;temperature;humidity
4518;DHT22;2271;49.464;11.070;2024-01-06T00:00:57;7.20;99.90
4518;DHT22;2271;49.464;11.070;2024-01-06T00:03:23;7.20;99.90
4518;DHT22;2271;49.464;11.070;2024-01-06T00:05:48;7.20;99.90
4518;DHT22;2271;49.464;11.070;2024-01-06T00:08:14;7.10;99.90
4518;DHT22;2271;49.464;11.070;2024-01-06T00:10:39;7.20;99.90
4518;DHT22;2271;49.464;11.070;2024-01-06T00:13:05;7.20;99.90
4518;DHT22;2271;49.464;11.070;2024-01-06T00:15:30;7.20;99.90
4518;DHT22;2271;49.464;11.070;2024-01-06T00:17:56;7.20;99.90
4518;DHT22;2271;49.464;11.070;2024-01-06T00:20:22;7.20;99.90
4518;DHT22;2271;49.464;11.070;2024-01-06T00:22:47;7.20;99.90
4518;DHT22;2271;49.464;11.070;2024-01-06T00:25:13;7.10;99.90
4518;DHT22;2271;49.464;11.070;2024-01-06T00:27:38;7.10;99.90
4518;DHT22;2271;49.464;11.070;2024-01-06T00:30:05;7.20;99.90
4518;DHT22;2271;49.464;11.070;2024-01-06T00:32:30;7.20;99.90
4518;DHT22;2271;49.464;11.070;2024-01-06T00:34:56;7.20;99.90
4518;DHT22;2271;49.464;11.070;2024-01-06T00:37:22;7.10;99.90
4518;DHT22;2271;49.464;11.070;2024-01-06T00:39:47;7.10;99.90
4518;DHT22;2271;49.464;11.070;2024-01-06T00:42:13;7.20;99.90
4518;DHT22;2271;49.464;11.070;2024-01-06T00:44:38;7.20;99.90
4518;DHT22;2271;49.464;11.070;2024-01-06T00:47:04;7.10;99.90
4518;DHT22;2271;49.464;11.070;2024-01-06T00:49:30;7.10;99.90
4518;DHT22;2271;49.464;11.070;2024-01-06T00:51:55;7.10;99.90
4518;DHT22;2271;49.464;11.070;2024-01-06T00:54:21;7.10;99.90
4518;DHT22;2271;49.464;11.070;2024-01-06T00:56:46;7.10;99.90
4518;DHT22;2271;49.464;11.070;2024-01-06T00:59:12;7.10;99.90
4518;DHT22;2271;49.464;11.070;2024-01-06T01:01:38;7.10;99.90
4518;DHT22;2271;49.464;11.070;2024-01-06T01:04:03;7.10;99.90
4518;DHT22;2271;49.464;11.070;2024-01-06T01:06:30;7.10;99.90
4518;DHT22;2271;49.464;11.070;2024-01-06T01:08:55;7.10;99.90
4518;DHT22;2271;49.464;11.070;2024-01-06T01:11:21;7.10;99.90
4518;DHT22;2271;49.464;11.070;2024-01-06T01:13:47;7.10;99.90
4518;DHT22;2271;49.464;11.070;2024-01-06T01:16:12;7.10;99.90
4518;DHT22;2271;49.464;11.070;2024-01-06T01:18:38;7.20;99.90
4518;DHT22;2271;49.464;11.070;2024-01-06T01:21:03;7.20;99.90
4518;DHT22;2271;49.464;11.070;2024-01-06T01:23:29;7.20;99.90
4518;DHT22;2271;49.464;11.070;2024-01-06T01:25:55;7.20;99.90
4518;DHT22;2271;49.464;11.070;2024-01-06T01:28:20;7.30;99.90
4518;DHT22;2271;49.464;11.070;2024-01-06T01:30:46;7.30;99.90
4518;DHT22;2271;49.464;11.070;2024-01-06T01:33:11;7.20;99.90
4518;DHT22;2271;49.464;11.070;2024-01-06T01:35:37;7.20;99.90
4518;DHT22;2271;49.464;11.070;2024-01-06T01:38:03;7.20;99.90
4518;DHT22;2271;49.464;11.070;2024-01-06T01:40:28;7.10;99.90
4518;DHT22;2271;49.464;11.070;2024-01-06T01:42:54;7.10;99.90
4518;DHT22;2271;49.464;11.070;2024-01-06T01:45:20;7.10;99.90
4518;DHT22;2271;49.464;11.070;2024-01-06T01:47:46;7.10;99.90
4518;DHT22;2271;49.464;11.070;2024-01-06T01:50:12;7.10;99.90
4518;DHT22;2271;49.464;11.070;2024-01-06T01:52:42;7.10;99.90
4518;DHT22;2271;49.464;11.070;2024-01-06T01:55:08;7.10;99.90
4518;DHT22;2271;49.464;11.070;2024-01-06T01:57:34;7.10;99.90
4518;DHT22;2271;49.464;11.070;2024-01-06T02:00:00;7.10;99.90
4518;DHT22;2271;49.464;11.070;2024-01-06T02:02:26;7.00;99.90
4518;DHT22;2271;49.464;11.070;2024-01-06T02:04:55;7.00;99.90
4518;DHT22;2271;49.464;11.070;2024-01-06T02:07:21;7.10;99.90
4518;DHT22;2271;49.464;11.070;2024-01-06T02:09:47;7.10;99.90
4518;DHT22;2271;49.464;11.070;2024-01-06T02:12:12;7.10;99.90
4518;DHT22;2271;49.464;11.070;2024-01-06T02:14:38;7.10;99.90
4518;DHT22;2271;49.464;11.070;2024-01-06T02:17:03;7.00;99.90
4518;DHT22;2271;49.464;11.070;2024-01-06T02:19:29;7.00;99.90
4518;DHT22;2271;49.464;11.070;2024-01-06T02:21:55;7.00;99.90
4518;DHT22;2271;49.464;11.070;2024-01-06T02:24:21;7.00;99.90
4518;DHT22;2271;49.464;11.070;2024-01-06T02:26:46;7.00;99.90
4518;DHT22;2271;49.464;11.070;2024-01-06T02:29:12;7.00;99.90
4518;DHT22;2271;49.464;11.070;2024-01-06T02:31:38;7.00;99.90
4518;DHT22;2271;49.464;11.070;2024-01-06T02:34:04;7.00;99.90
4518;DHT22;2271;49.464;11.070;2024-01-06T02:36:29;7.00;99.90
4518;DHT22;2271;49.464;11.070;2024-01-06T02:38:55;6.90;99.90
4518;DHT22;2271;49.464;11.070;2024-01-06T02:41:20;6.90;99.90
4518;DHT22;2271;49.464;11.070;2024-01-06T02:43:46;6.90;99.90
4518;DHT22;2271;49.464;11.070;2024-01-06T02:46:12;6.90;99.90
4518;DHT22;2271;49.464;11.070;2024-01-06T02:48:38;6.90;99.90
4518;DHT22;2271;49.464;11.070;2024-01-06T02:51:03;6.90;99.90
4518;DHT22;2271;49.464;11.070;2024-01-06T02:53:29;6.90;99.90
4518;DHT22;2271;49.464;11.070;2024-01-06T02:55:55;6.90;99.90
4518;DHT22;2271;49.464;11.070;2024-01-06T02:58:20;6.90;99.90
4518;DHT22;2271;49.464;11.070;2024-01-06T03:00:46;6.90;99.90
4518;DHT22;2271;49.464;11.070;2024-01-06T03:03:12;6.90;99.90
4518;DHT22;2271;49.464;11.070;2024-01-06T03:05:37;6.90;99.90
4518;DHT22;2271;49.464;11.070;2024-01-06T03:08:04;6.90;99.90
4518;DHT22;2271;49.464;11.070;2024-01-06T03:10:29;6.90;99.90
4518;DHT22;2271;49.464;11.070;2024-01-06T03:12:55;6.90;99.90
4518;DHT22;2271;49.464;11.070;2024-01-06T03:15:22;6.90;99.90
4518;DHT22;2271;49.464;11.070;2024-01-06T03:17:47;6.90;99.90
4518;DHT22;2271;49.464;11.070;2024-01-06T03:20:13;6.90;99.90
4518;DHT22;2271;49.464;11.070;2024-01-06T03:22:39;6.80;99.90
4518;DHT22;2271;49.464;11.070;2024-01-06T03:25:05;6.80;99.90
4518;DHT22;2271;49.464;11.070;2024-01-06T03:27:31;6.90;99.90
4518;DHT22;2271;49.464;11.070;2024-01-06T03:29:57;6.80;99.90
4518;DHT22;2271;49.464;11.070;2024-01-06T03:32:22;6.90;99.90
4518;DHT22;2271;49.464;11.070;2024-01-06T03:34:49;6.90;99.90
4518;DHT22;2271;49.464;11.070;2024-01-06T03:37:15;6.90;99.90
4518;DHT22;2271;49.464;11.070;2024-01-06T03:39:41;6.90;99.90
4518;DHT22;2271;49.464;11.070;2024-01-06T03:42:06;6.90;99.90
4518;DHT22;2271;49.464;11.070;2024-01-06T03:44:32;6.90;99.90
4518;DHT22;2271;49.464;11.070;2024-01-06T03:46:59;6.90;99.90
4518;DHT22;2271;49.464;11.070;2024-01-06T03:49:25;6.70;99.90
4518;DHT22;2271;49.464;11.070;2024-01-06T03:51:51;6.80;99.90
4518;DHT22;2271;49.464;11.070;2024-01-06T03:54:17;6.80;99.90
4518;DHT22;2271;49.464;11.070;2024-01-06T03:56:42;6.80;99.90
4518;DHT22;2271;49.464;11.070;2024-01-06T03:59:08;6.80;99.90
4518;DHT22;2271;49.464;11.070;2024-01-06T04:01:34;6.80;99.90
4518;DHT22;2271;49.464;11.070;2024-01-06T04:04:04;6.80;99.90
4518;DHT22;2271;49.464;11.070;2024-01-06T04:06:30;6.80;99.90
4518;DHT22;2271;49.464;11.070;2024-01-06T04:08:57;6.80;99.90
4518;DHT22;2271;49.464;11.070;2024-01-06T04:11:23;6.80;99.90
4518;DHT22;2271;49.464;11.070;2024-01-06T04:13:48;6.80;99.90
4518;DHT22;2271;49.464;11.070;2024-01-06T04:16:14;6.80;99.90
4518;DHT22;2271;49.464;11.070;2024-01-06T04:18:40;6.80;99.90
4518;DHT22;2271;49.464;11.070;2024-01-06T04:21:05;6.80;99.90
4518;DHT22;2271;49.464;11.070;2024-01-06T04:23:31;6.80;99.90
4518;DHT22;2271;49.464;11.070;2024-01-06T04:25:57;6.80;99.90
4518;DHT22;2271;49.464;11.070;2024-01-06T04:28:22;6.70;99.90
4518;DHT22;2271;49.464;11.070;2024-01-06T04:30:48;6.70;99.90
4518;DHT22;2271;49.464;11.070;2024-01-06T04:33:14;6.70;99.90
4518;DHT22;2271;49.464;11.070;2024-01-06T04:35:40;6.70;99.90
4518;DHT22;2271;49.464;11.070;2024-01-06T04:38:05;6.70;99.90
4518;DHT22;2271;49.464;11.070;2024-01-06T04:40:31;6.70;99.90
4518;DHT22;2271;49.464;11.070;2024-01-06T04:42:57;6.70;99.90
4518;DHT22;2271;49.464;11.070;2024-01-06T04:45:22;6.70;99.90
4518;DHT22;2271;49.464;11.070;2024-01-06T04:47:50;6.70;99.90
4518;DHT22;2271;49.464;11.070;2024-01-06T04:50:16;6.70;99.90
4518;DHT22;2271;49.464;11.070;2024-01-06T04:52:42;6.70;99.90
4518;DHT22;2271;49.464;11.070;2024-01-06T04:55:09;6.70;99.90
4518;DHT22;2271;49.464;11.070;2024-01-06T04:57:35;6.70;99.90
4518;DHT22;2271;49.464;11.070;2024-01-06T05:00:01;6.70;99.90
4518;DHT22;2271;49.464;11.070;2024-01-06T05:02:26;6.80;99.90
4518;DHT22;2271;49.464;11.070;2024-01-06T05:04:52;6.80;99.90
4518;DHT22;2271;49.464;11.070;2024-01-06T05:07:17;6.80;99.90
4518;DHT22;2271;49.464;11.070;2024-01-06T05:09:43;6.80;99.90
4518;DHT22;2271;49.464;11.070;2024-01-06T05:12:09;6.70;99.90
4518;DHT22;2271;49.464;11.070;2024-01-06T05:14:34;6.70;99.90
4518;DHT22;2271;49.464;11.070;2024-01-06T05:17:00;6.70;99.90
4518;DHT22;2271;49.464;11.070;2024-01-06T05:19:25;6.60;99.90
4518;DHT22;2271;49.464;11.070;2024-01-06T05:21:51;6.60;99.90
4518;DHT22;2271;49.464;11.070;2024-01-06T05:24:18;6.50;99.90
4518;DHT22;2271;49.464;11.070;2024-01-06T05:26:44;6.50;99.90
4518;DHT22;2271;49.464;11.070;2024-01-06T05:29:10;6.50;99.90
4518;DHT22;2271;49.464;11.070;2024-01-06T05:31:35;6.60;99.90
4518;DHT22;2271;49.464;11.070;2024-01-06T05:34:01;6.60;99.90
4518;DHT22;2271;49.464;11.070;2024-01-06T05:36:27;6.60;99.90
4518;DHT22;2271;49.464;11.070;2024-01-06T05:38:52;6.60;99.90
4518;DHT22;2271;49.464;11.070;2024-01-06T05:41:18;6.60;99.90
4518;DHT22;2271;49.464;11.070;2024-01-06T05:43:44;6.50;99.90
4518;DHT22;2271;49.464;11.070;2024-01-06T05:46:09;6.50;99.90
4518;DHT22;2271;49.464;11.070;2024-01-06T05:48:36;6.50;99.90
4518;DHT22;2271;49.464;11.070;2024-01-06T05:51:04;6.50;99.90
4518;DHT22;2271;49.464;11.070;2024-01-06T05:53:34;6.50;99.90
4518;DHT22;2271;49.464;11.070;2024-01-06T05:56:01;6.40;99.90
4518;DHT22;2271;49.464;11.070;2024-01-06T05:58:27;6.50;99.90
4518;DHT22;2271;49.464;11.070;2024-01-06T06:00:52;6.50;99.90
4518;DHT22;2271;49.464;11.070;2024-01-06T06:03:18;6.40;99.90
4518;DHT22;2271;49.464;11.070;2024-01-06T06:05:43;6.40;99.90
4518;DHT22;2271;49.464;11.070;2024-01-06T06:08:10;6.40;99.90
4518;DHT22;2271;49.464;11.070;2024-01-06T06:10:35;6.40;99.90
4518;DHT22;2271;49.464;11.070;2024-01-06T06:13:25;6.40;99.90
4518;DHT22;2271;49.464;11.070;2024-01-06T06:15:50;6.40;99.90
4518;DHT22;2271;49.464;11.070;2024-01-06T06:18:16;6.40;99.90
4518;DHT22;2271;49.464;11.070;2024-01-06T06:20:41;6.40;99.90
4518;DHT22;2271;49.464;11.070;2024-01-06T06:23:09;6.40;99.90
4518;DHT22;2271;49.464;11.070;2024-01-06T06:25:38;6.40;99.90
4518;DHT22;2271;49.464;11.070;2024-01-06T06:28:04;6.40;99.90
4518;DHT22;2271;49.464;11.070;2024-01-06T06:30:29;6.50;99.90
4518;DHT22;2271;49.464;11.070;2024-01-06T06:32:55;6.50;99.90
4518;DHT22;2271;49.464;11.070;2024-01-06T06:35:21;6.50;99.90
4518;DHT22;2271;49.464;11.070;2024-01-06T06:37:47;6.50;99.90
4518;DHT22;2271;49.464;11.070;2024-01-06T06:40:13;6.50;99.90
4518;DHT22;2271;49.464;11.070;2024-01-06T06:42:38;6.50;99.90
4518;DHT22;2271;49.464;11.070;2024-01-06T06:45:04;6.50;99.90
4518;DHT22;2271;49.464;11.070;2024-01-06T06:47:30;6.50;99.90
4518;DHT22;2271;49.464;11.070;2024-01-06T06:49:56;6.40;99.90
4518;DHT22;2271;49.464;11.070;2024-01-06T06:52:21;6.40;99.90
4518;DHT22;2271;49.464;11.070;2024-01-06T06:54:47;6.40;99.90
4518;DHT22;2271;49.464;11.070;2024-01-06T06:57:14;6.40;99.90
4518;DHT22;2271;49.464;11.070;2024-01-06T06:59:40;6.30;99.90
4518;DHT22;2271;49.464;11.070;2024-01-06T07:02:06;6.30;99.90
4518;DHT22;2271;49.464;11.070;2024-01-06T07:04:32;6.30;99.90
4518;DHT22;2271;49.464;11.070;2024-01-06T07:06:58;6.30;99.90
4518;DHT22;2271;49.464;11.070;2024-01-06T07:09:23;6.30;99.90
4518;DHT22;2271;49.464;11.070;2024-01-06T07:11:50;6.30;99.90
4518;DHT22;2271;49.464;11.070;2024-01-06T07:14:16;6.40;99.90
4518;DHT22;2271;49.464;11.070;2024-01-06T07:16:41;6.40;99.90
4518;DHT22;2271;49.464;11.070;2024-01-06T07:19:07;6.40;99.90
4518;DHT22;2271;49.464;11.070;2024-01-06T07:21:33;6.40;99.90
4518;DHT22;2271;49.464;11.070;2024-01-06T07:23:59;6.40;99.90
4518;DHT22;2271;49.464;11.070;2024-01-06T07:26:26;6.30;99.90
4518;DHT22;2271;49.464;11.070;2024-01-06T07:28:52;6.30;99.90
4518;DHT22;2271;49.464;11.070;2024-01-06T07:31:17;6.30;99.90
4518;DHT22;2271;49.464;11.070;2024-01-06T07:33:44;6.30;99.90
4518;DHT22;2271;49.464;11.070;2024-01-06T07:36:10;6.30;99.90
4518;DHT22;2271;49.464;11.070;2024-01-06T07:38:36;6.40;99.90
4518;DHT22;2271;49.464;11.070;2024-01-06T07:41:02;6.40;99.90
4518;DHT22;2271;49.464;11.070;2024-01-06T07:43:30;6.40;99.90
4518;DHT22;2271;49.464;11.070;2024-01-06T07:45:55;6.40;99.90
4518;DHT22;2271;49.464;11.070;2024-01-06T07:48:21;6.40;99.90
4518;DHT22;2271;49.464;11.070;2024-01-06T07:50:46;6.40;99.90
4518;DHT22;2271;49.464;11.070;2024-01-06T07:53:12;9.00;99.90
4518;DHT22;2271;49.464;11.070;2024-01-06T07:55:39;9.90;99.90
4518;DHT22;2271;49.464;11.070;2024-01-06T07:58:05;10.60;99.90
4518;DHT22;2271;49.464;11.070;2024-01-06T08:00:31;11.20;99.90
4518;DHT22;2271;49.464;11.070;2024-01-06T08:02:57;10.60;99.90
4518;DHT22;2271;49.464;11.070;2024-01-06T08:05:22;9.50;99.90
4518;DHT22;2271;49.464;11.070;2024-01-06T08:07:50;8.70;99.90
4518;DHT22;2271;49.464;11.070;2024-01-06T08:10:16;8.10;99.90
4518;DHT22;2271;49.464;11.070;2024-01-06T08:12:42;7.70;99.90
4518;DHT22;2271;49.464;11.070;2024-01-06T08:15:08;7.90;99.90
4518;DHT22;2271;49.464;11.070;2024-01-06T08:17:35;7.80;99.90
4518;DHT22;2271;49.464;11.070;2024-01-06T08:20:01;7.60;99.90
4518;DHT22;2271;49.464;11.070;2024-01-06T08:22:26;7.40;99.90
4518;DHT22;2271;49.464;11.070;2024-01-06T08:24:52;7.20;99.90
4518;DHT22;2271;49.464;11.070;2024-01-06T08:27:17;7.00;99.90
4518;DHT22;2271;49.464;11.070;2024-01-06T08:29:43;6.90;99.90
4518;DHT22;2271;49.464;11.070;2024-01-06T08:32:09;6.90;99.90
4518;DHT22;2271;49.464;11.070;2024-01-06T08:34:35;6.80;99.90
4518;DHT22;2271;49.464;11.070;2024-01-06T08:37:01;6.70;99.90
4518;DHT22;2271;49.464;11.070;2024-01-06T08:39:26;6.70;99.90
4518;DHT22;2271;49.464;11.070;2024-01-06T08:41:52;6.70;99.90
4518;DHT22;2271;49.464;11.070;2024-01-06T08:44:17;6.70;99.90
4518;DHT22;2271;49.464;11.070;2024-01-06T08:46:43;6.70;99.90
4518;DHT22;2271;49.464;11.070;2024-01-06T08:49:09;6.70;99.90
4518;DHT22;2271;49.464;11.070;2024-01-06T08:51:34;6.70;99.90
4518;DHT22;2271;49.464;11.070;2024-01-06T08:54:01;6.70;99.90
4518;DHT22;2271;49.464;11.070;2024-01-06T08:56:30;6.60;99.90
4518;DHT22;2271;49.464;11.070;2024-01-06T08:58:55;6.60;99.90
4518;DHT22;2271;49.464;11.070;2024-01-06T09:01:22;6.60;99.90
4518;DHT22;2271;49.464;11.070;2024-01-06T09:03:48;6.60;99.90
4518;DHT22;2271;49.464;11.070;2024-01-06T09:06:15;6.60;99.90
4518;DHT22;2271;49.464;11.070;2024-01-06T09:08:40;6.60;99.90
4518;DHT22;2271;49.464;11.070;2024-01-06T09:11:06;6.60;99.90
4518;DHT22;2271;49.464;11.070;2024-01-06T09:13:32;6.70;99.90
4518;DHT22;2271;49.464;11.070;2024-01-06T09:15:58;6.70;99.90
4518;DHT22;2271;49.464;11.070;2024-01-06T09:18:26;6.70;99.90
4518;DHT22;2271;49.464;11.070;2024-01-06T09:20:52;6.70;99.90
4518;DHT22;2271;49.464;11.070;2024-01-06T09:23:17;6.70;99.90
4518;DHT22;2271;49.464;11.070;2024-01-06T09:25:43;6.60;99.90
4518;DHT22;2271;49.464;11.070;2024-01-06T09:28:09;6.70;99.90
4518;DHT22;2271;49.464;11.070;2024-01-06T09:30:36;6.70;99.90
4518;DHT22;2271;49.464;11.070;2024-01-06T09:33:02;6.70;99.90
4518;DHT22;2271;49.464;11.070;2024-01-06T09:35:28;6.70;99.90
4518;DHT22;2271;49.464;11.070;2024-01-06T09:37:54;6.70;99.90
4518;DHT22;2271;49.464;11.070;2024-01-06T09:40:23;6.80;99.90
4518;DHT22;2271;49.464;11.070;2024-01-06T09:42:50;6.80;99.90
4518;DHT22;2271;49.464;11.070;2024-01-06T09:45:16;6.70;99.90
4518;DHT22;2271;49.464;11.070;2024-01-06T09:47:42;6.80;99.90
4518;DHT22;2271;49.464;11.070;2024-01-06T09:50:12;6.70;99.90
4518;DHT22;2271;49.464;11.070;2024-01-06T09:52:40;6.70;99.90
4518;DHT22;2271;49.464;11.070;2024-01-06T09:55:12;6.70;99.90
4518;DHT22;2271;49.464;11.070;2024-01-06T09:57:38;6.70;99.90
4518;DHT22;2271;49.464;11.070;2024-01-06T10:00:05;6.70;99.90
4518;DHT22;2271;49.464;11.070;2024-01-06T10:02:31;6.70;99.90
4518;DHT22;2271;49.464;11.070;2024-01-06T10:04:59;6.70;99.90
4518;DHT22;2271;49.464;11.070;2024-01-06T10:07:28;6.70;99.90
4518;DHT22;2271;49.464;11.070;2024-01-06T10:09:55;6.70;99.90
4518;DHT22;2271;49.464;11.070;2024-01-06T10:12:25;6.70;99.90
4518;DHT22;2271;49.464;11.070;2024-01-06T10:14:51;6.70;99.90
4518;DHT22;2271;49.464;11.070;2024-01-06T10:17:17;6.80;99.90
4518;DHT22;2271;49.464;11.070;2024-01-06T10:19:45;6.80;99.90
4518;DHT22;2271;49.464;11.070;2024-01-06T10:22:10;6.70;99.90
4518;DHT22;2271;49.464;11.070;2024-01-06T10:24:39;6.80;99.90
4518;DHT22;2271;49.464;11.070;2024-01-06T10:27:05;6.80;99.90
4518;DHT22;2271;49.464;11.070;2024-01-06T10:29:30;6.80;99.90
4518;DHT22;2271;49.464;11.070;2024-01-06T10:31:56;6.80;99.90
4518;DHT22;2271;49.464;11.070;2024-01-06T10:34:23;6.70;99.90
4518;DHT22;2271;49.464;11.070;2024-01-06T10:36:50;6.80;99.90
4518;DHT22;2271;49.464;11.070;2024-01-06T10:39:18;6.80;99.90
4518;DHT22;2271;49.464;11.070;2024-01-06T10:41:44;6.70;99.90
4518;DHT22;2271;49.464;11.070;2024-01-06T10:44:11;6.70;99.90
4518;DHT22;2271;49.464;11.070;2024-01-06T10:46:38;6.80;99.90
4518;DHT22;2271;49.464;11.070;2024-01-06T10:49:05;6.80;99.90
4518;DHT22;2271;49.464;11.070;2024-01-06T10:51:34;6.80;99.90
4518;DHT22;2271;49.464;11.070;2024-01-06T10:54:01;6.80;99.90
4518;DHT22;2271;49.464;11.070;2024-01-06T10:56:29;6.80;99.90
4518;DHT22;2271;49.464;11.070;2024-01-06T10:58:56;6.80;99.90
4518;DHT22;2271;49.464;11.070;2024-01-06T11:01:23;6.90;99.90
4518;DHT22;2271;49.464;11.070;2024-01-06T11:03:54;6.90;99.90
4518;DHT22;2271;49.464;11.070;2024-01-06T11:06:20;6.90;99.90
4518;DHT22;2271;49.464;11.070;2024-01-06T11:08:52;6.80;99.90
4518;DHT22;2271;49.464;11.070;2024-01-06T11:11:19;6.90;99.90
4518;DHT22;2271;49.464;11.070;2024-01-06T11:13:46;6.90;99.90
4518;DHT22;2271;49.464;11.070;2024-01-06T11:16:36;7.00;99.90
4518;DHT22;2271;49.464;11.070;2024-01-06T11:19:02;7.00;99.90
4518;DHT22;2271;49.464;11.070;2024-01-06T11:21:33;7.00;99.90
4518;DHT22;2271;49.464;11.070;2024-01-06T11:24:18;7.00;99.90
4518;DHT22;2271;49.464;11.070;2024-01-06T11:26:51;7.10;99.90
4518;DHT22;2271;49.464;11.070;2024-01-06T11:29:18;7.10;99.90
4518;DHT22;2271;49.464;11.070;2024-01-06T11:34:41;7.20;99.90
4518;DHT22;2271;49.464;11.070;2024-01-06T11:37:07;7.20;99.90
4518;DHT22;2271;49.464;11.070;2024-01-06T11:39:40;7.30;99.90
4518;DHT22;2271;49.464;11.070;2024-01-06T11:42:05;7.30;99.90
4518;DHT22;2271;49.464;11.070;2024-01-06T11:44:37;7.30;99.90
4518;DHT22;2271;49.464;11.070;2024-01-06T11:47:04;7.30;99.90
4518;DHT22;2271;49.464;11.070;2024-01-06T11:49:30;7.30;99.90
4518;DHT22;2271;49.464;11.070;2024-01-06T11:51:57;7.30;99.90
4518;DHT22;2271;49.464;11.070;2024-01-06T11:54:23;7.30;99.90
4518;DHT22;2271;49.464;11.070;2024-01-06T11:56:49;7.30;99.90
4518;DHT22;2271;49.464;11.070;2024-01-06T11:59:14;7.30;99.90
4518;DHT22;2271;49.464;11.070;2024-01-06T12:01:40;7.20;99.90
4518;DHT22;2271;49.464;11.070;2024-01-06T12:04:06;7.20;99.90
4518;DHT22;2271;49.464;11.070;2024-01-06T12:06:33;7.30;99.90
4518;DHT22;2271;49.464;11.070;2024-01-06T12:11:30;7.20;99.90
4518;DHT22;2271;49.464;11.070;2024-01-06T12:13:56;7.20;99.90
4518;DHT22;2271;49.464;11.070;2024-01-06T12:16:22;7.20;99.90
4518;DHT22;2271;49.464;11.070;2024-01-06T12:18:55;7.10;99.90
4518;DHT22;2271;49.464;11.070;2024-01-06T12:21:23;7.20;99.90
4518;DHT22;2271;49.464;11.070;2024-01-06T12:23:48;7.20;99.90
4518;DHT22;2271;49.464;11.070;2024-01-06T12:26:14;7.20;99.90
4518;DHT22;2271;49.464;11.070;2024-01-06T12:28:39;7.20;99.90
4518;DHT22;2271;49.464;11.070;2024-01-06T12:31:09;7.20;99.90
4518;DHT22;2271;49.464;11.070;2024-01-06T12:33:35;7.20;99.90
4518;DHT22;2271;49.464;11.070;2024-01-06T12:36:03;7.60;99.90
4518;DHT22;2271;49.464;11.070;2024-01-06T12:38:32;7.50;99.90
4518;DHT22;2271;49.464;11.070;2024-01-06T12:40:57;7.40;99.90
4518;DHT22;2271;49.464;11.070;2024-01-06T12:43:23;7.40;99.90
4518;DHT22;2271;49.464;11.070;2024-01-06T12:45:48;7.40;99.90
4518;DHT22;2271;49.464;11.070;2024-01-06T12:48:18;7.40;99.90
4518;DHT22;2271;49.464;11.070;2024-01-06T12:50:43;7.30;99.90
4518;DHT22;2271;49.464;11.070;2024-01-06T12:53:09;7.30;99.90
4518;DHT22;2271;49.464;11.070;2024-01-06T12:55:37;9.30;99.90
4518;DHT22;2271;49.464;11.070;2024-01-06T12:58:03;9.30;99.90
4518;DHT22;2271;49.464;11.070;2024-01-06T13:00:29;8.80;99.90
4518;DHT22;2271;49.464;11.070;2024-01-06T13:02:55;8.80;99.90
4518;DHT22;2271;49.464;11.070;2024-01-06T13:05:21;8.40;99.90
4518;DHT22;2271;49.464;11.070;2024-01-06T13:07:48;8.00;99.90
4518;DHT22;2271;49.464;11.070;2024-01-06T13:10:14;7.80;99.90
4518;DHT22;2271;49.464;11.070;2024-01-06T13:12:40;7.70;99.90
4518;DHT22;2271;49.464;11.070;2024-01-06T13:15:06;7.60;99.90
4518;DHT22;2271;49.464;11.070;2024-01-06T13:17:36;8.70;99.90
4518;DHT22;2271;49.464;11.070;2024-01-06T13:20:03;8.30;99.90
4518;DHT22;2271;49.464;11.070;2024-01-06T13:22:29;8.00;99.90
4518;DHT22;2271;49.464;11.070;2024-01-06T13:24:56;7.80;99.90
4518;DHT22;2271;49.464;11.070;2024-01-06T13:27:21;7.70;99.90
4518;DHT22;2271;49.464;11.070;2024-01-06T13:29:47;7.50;99.90
4518;DHT22;2271;49.464;11.070;2024-01-06T13:32:13;7.40;99.90
4518;DHT22;2271;49.464;11.070;2024-01-06T13:34:40;7.30;99.90
4518;DHT22;2271;49.464;11.070;2024-01-06T13:37:07;7.20;99.90
4518;DHT22;2271;49.464;11.070;2024-01-06T13:39:33;7.20;99.90
4518;DHT22;2271;49.464;11.070;2024-01-06T13:41:59;7.20;99.90
4518;DHT22;2271;49.464;11.070;2024-01-06T13:44:24;7.20;99.90
4518;DHT22;2271;49.464;11.070;2024-01-06T13:46:50;7.20;99.90
4518;DHT22;2271;49.464;11.070;2024-01-06T13:49:17;7.10;99.90
4518;DHT22;2271;49.464;11.070;2024-01-06T13:51:43;7.00;99.90
4518;DHT22;2271;49.464;11.070;2024-01-06T13:54:09;7.10;99.90
4518;DHT22;2271;49.464;11.070;2024-01-06T13:56:35;7.00;99.90
4518;DHT22;2271;49.464;11.070;2024-01-06T13:59:02;6.70;99.90
4518;DHT22;2271;49.464;11.070;2024-01-06T14:01:28;6.70;99.90
4518;DHT22;2271;49.464;11.070;2024-01-06T14:03:54;6.60;99.90
4518;DHT22;2271;49.464;11.070;2024-01-06T14:06:26;6.70;99.90
4518;DHT22;2271;49.464;11.070;2024-01-06T14:08:59;6.80;99.90
4518;DHT22;2271;49.464;11.070;2024-01-06T14:11:26;6.80;99.90
4518;DHT22;2271;49.464;11.070;2024-01-06T14:13:52;6.90;99.90
4518;DHT22;2271;49.464;11.070;2024-01-06T14:16:19;6.90;99.90
4518;DHT22;2271;49.464;11.070;2024-01-06T14:18:46;6.80;99.90
4518;DHT22;2271;49.464;11.070;2024-01-06T14:21:12;6.70;99.90
4518;DHT22;2271;49.464;11.070;2024-01-06T14:23:41;6.80;99.90
4518;DHT22;2271;49.464;11.070;2024-01-06T14:26:06;6.90;99.90
4518;DHT22;2271;49.464;11.070;2024-01-06T14:28:32;6.90;99.90
4518;DHT22;2271;49.464;11.070;2024-01-06T14:30:58;6.90;99.90
4518;DHT22;2271;49.464;11.070;2024-01-06T14:33:24;6.90;99.90
4518;DHT22;2271;49.464;11.070;2024-01-06T14:35:49;7.00;99.90
4518;DHT22;2271;49.464;11.070;2024-01-06T14:38:15;7.00;99.90
4518;DHT22;2271;49.464;11.070;2024-01-06T14:40:40;7.00;99.90
4518;DHT22;2271;49.464;11.070;2024-01-06T14:43:06;7.00;99.90
4518;DHT22;2271;49.464;11.070;2024-01-06T14:45:32;7.10;99.90
4518;DHT22;2271;49.464;11.070;2024-01-06T14:47:58;7.10;99.90
4518;DHT22;2271;49.464;11.070;2024-01-06T14:50:23;7.00;99.90
4518;DHT22;2271;49.464;11.070;2024-01-06T14:52:49;7.00;99.90
4518;DHT22;2271;49.464;11.070;2024-01-06T14:55:15;6.90;99.90
4518;DHT22;2271;49.464;11.070;2024-01-06T14:57:41;6.90;99.90
4518;DHT22;2271;49.464;11.070;2024-01-06T15:00:08;6.90;99.90
4518;DHT22;2271;49.464;11.070;2024-01-06T15:02:36;6.90;99.90
4518;DHT22;2271;49.464;11.070;2024-01-06T15:05:02;6.80;99.90
4518;DHT22;2271;49.464;11.070;2024-01-06T15:07:32;6.70;99.90
4518;DHT22;2271;49.464;11.070;2024-01-06T15:09:59;6.60;99.90
4518;DHT22;2271;49.464;11.070;2024-01-06T15:12:26;6.60;99.90
4518;DHT22;2271;49.464;11.070;2024-01-06T15:14:52;6.70;99.90
4518;DHT22;2271;49.464;11.070;2024-01-06T15:17:19;6.60;99.90
4518;DHT22;2271;49.464;11.070;2024-01-06T15:19:47;6.50;99.90
4518;DHT22;2271;49.464;11.070;2024-01-06T15:22:14;6.40;99.90
4518;DHT22;2271;49.464;11.070;2024-01-06T15:24:40;6.40;99.90
4518;DHT22;2271;49.464;11.070;2024-01-06T15:27:08;6.40;99.90
4518;DHT22;2271;49.464;11.070;2024-01-06T15:29:34;6.50;99.90
4518;DHT22;2271;49.464;11.070;2024-01-06T15:31:59;6.60;99.90
4518;DHT22;2271;49.464;11.070;2024-01-06T15:34:25;6.70;99.90
4518;DHT22;2271;49.464;11.070;2024-01-06T15:36:51;6.70;99.90
4518;DHT22;2271;49.464;11.070;2024-01-06T15:39:17;6.70;99.90
4518;DHT22;2271;49.464;11.070;2024-01-06T15:41:43;6.80;99.90
4518;DHT22;2271;49.464;11.070;2024-01-06T15:44:08;6.80;99.90
4518;DHT22;2271;49.464;11.070;2024-01-06T15:46:34;6.70;99.90
4518;DHT22;2271;49.464;11.070;2024-01-06T15:49:00;6.80;99.90
4518;DHT22;2271;49.464;11.070;2024-01-06T15:51:25;6.80;99.90
4518;DHT22;2271;49.464;11.070;2024-01-06T15:53:51;6.70;99.90
4518;DHT22;2271;49.464;11.070;2024-01-06T15:56:17;6.70;99.90
4518;DHT22;2271;49.464;11.070;2024-01-06T15:58:43;6.70;99.90
4518;DHT22;2271;49.464;11.070;2024-01-06T16:01:08;6.70;99.90